Time;durP1;ratioP1;P1;durP2;ratioP2;P2;SDS_P1;SDS_P2;PMS_P1;PMS_P2;Temp;Humidity;BMP_temperature;BMP_pressure;BME280_temperature;BME280_humidity;BME280_pressure;Samples;Min_cycle;Max_cycle;Signal;HPM_P1;HPM_P2
2021/03/08 00:00:57;;;;;;;22.03;18.10;;;-0.60;99.90;;;0.23;73.02;98189.88;5206392;28;20205;-59
2021/03/08 00:03:29;;;;;;;20.17;17.70;;;-0.60;99.90;;;0.22;73.00;98195.63;5206787;28;20569;-61
2021/03/08 00:06:01;;;;;;;19.57;17.57;;;-0.60;99.90;;;0.20;72.94;98204.63;5218575;28;20201;-61
2021/03/08 00:08:33;;;;;;;21.40;17.60;;;-0.60;99.90;;;0.21;72.71;98207.31;5219798;28;20565;-61
2021/03/08 00:11:05;;;;;;;21.90;18.23;;;-0.60;99.90;;;0.41;72.15;98195.88;5206066;28;20673;-58
2021/03/08 00:13:37;;;;;;;20.93;18.50;;;-0.70;99.90;;;0.50;71.88;98195.91;5206783;28;20193;-59
2021/03/08 00:16:10;;;;;;;21.17;17.67;;;-0.80;99.90;;;0.33;71.87;98192.59;5205649;28;20212;-61
2021/03/08 00:18:42;;;;;;;20.83;18.57;;;-0.80;99.90;;;0.02;72.76;98202.75;5219792;28;20220;-63
2021/03/08 00:21:14;;;;;;;21.97;19.13;;;-1.00;99.90;;;-0.09;72.29;98189.09;5211551;28;20202;-62
2021/03/08 00:23:46;;;;;;;19.03;16.67;;;-1.00;99.90;;;-0.26;73.87;98195.78;5206671;28;20218;-62
2021/03/08 00:26:18;;;;;;;23.10;19.07;;;-1.10;99.90;;;-0.24;74.37;98194.31;5205519;28;20229;-62
2021/03/08 00:28:50;;;;;;;24.23;19.53;;;-1.10;99.90;;;-0.24;73.36;98203.47;5225347;28;20711;-62
2021/03/08 00:31:23;;;;;;;21.67;17.77;;;-1.10;99.90;;;-0.32;74.24;98205.19;5226204;28;20326;-62
2021/03/08 00:33:55;;;;;;;22.40;18.87;;;-1.10;99.90;;;-0.34;74.54;98195.72;5212070;28;20288;-60
2021/03/08 00:36:27;;;;;;;20.53;17.53;;;-1.10;99.90;;;-0.28;74.79;98203.91;5208727;28;20202;-62
2021/03/08 00:38:59;;;;;;;22.97;18.13;;;-1.10;99.90;;;-0.27;75.28;98194.00;5205356;28;20201;-61
2021/03/08 00:41:31;;;;;;;22.80;18.47;;;-1.10;99.90;;;-0.28;74.20;98201.38;5207796;28;20198;-60
2021/03/08 00:44:04;;;;;;;21.10;18.47;;;-1.10;99.90;;;-0.38;75.17;98194.50;5205162;28;20226;-61
2021/03/08 00:46:37;;;;;;;20.93;17.47;;;-1.20;99.90;;;-0.30;74.17;98200.31;5222053;28;20197;-59
2021/03/08 00:49:09;;;;;;;24.20;18.50;;;-1.10;99.90;;;-0.29;74.39;98192.94;5207410;28;20645;-61
2021/03/08 00:51:42;;;;;;;19.97;17.03;;;-1.10;99.90;;;-0.26;74.15;98199.91;5205464;28;20226;-61
2021/03/08 00:54:13;;;;;;;21.20;18.53;;;-1.20;99.90;;;-0.46;73.70;98186.19;5212710;28;20668;-60
2021/03/08 00:56:45;;;;;;;24.03;18.73;;;-1.30;99.90;;;-0.52;74.24;98185.53;5225763;28;20225;-59
2021/03/08 00:59:26;;;;;;;22.10;18.47;;;-1.30;99.90;;;-0.57;74.66;98181.66;5215848;28;20194;-60
2021/03/08 01:01:59;;;;;;;20.73;18.23;;;-1.30;99.90;;;-0.55;74.36;98185.22;5216800;28;20223;-60
2021/03/08 01:04:31;;;;;;;21.20;17.93;;;-1.30;99.90;;;-0.53;74.20;98186.25;5216331;28;20222;-59
2021/03/08 01:07:03;;;;;;;22.03;18.73;;;-1.30;99.90;;;-0.59;74.49;98183.13;5205532;28;20320;-59
2021/03/08 01:09:35;;;;;;;22.80;19.13;;;-1.30;99.90;;;-0.60;75.52;98178.84;5205627;28;20201;-59
2021/03/08 01:12:09;;;;;;;22.83;18.83;;;-1.40;99.90;;;-0.63;74.96;98181.03;5212713;28;20193;-59
2021/03/08 01:14:41;;;;;;;21.97;17.40;;;-1.40;99.90;;;-0.62;75.29;98175.28;5212837;28;20700;-60
2021/03/08 01:17:15;;;;;;;21.73;17.80;;;-1.50;99.90;;;-0.68;75.31;98177.16;5205018;28;20420;-59
2021/03/08 01:19:47;;;;;;;21.47;18.30;;;-1.50;99.90;;;-0.76;74.90;98166.28;5205023;28;20263;-60
2021/03/08 01:22:19;;;;;;;20.87;17.07;;;-1.60;99.90;;;-0.76;75.94;98172.94;5206874;28;20202;-60
2021/03/08 01:24:51;;;;;;;20.57;18.47;;;-1.50;99.90;;;-0.74;75.23;98168.97;5208121;28;20213;-58
2021/03/08 01:27:23;;;;;;;20.00;17.50;;;-1.50;99.90;;;-0.70;76.17;98168.56;5225525;28;20224;-62
2021/03/08 01:30:08;;;;;;;19.73;17.63;;;-1.50;99.90;;;-0.58;75.80;98171.47;5220510;28;20194;-61
2021/03/08 01:32:41;;;;;;;21.40;17.20;;;-1.40;99.90;;;-0.62;75.14;98177.78;5204940;28;20725;-61
2021/03/08 01:35:14;;;;;;;19.43;17.20;;;-1.40;99.90;;;-0.62;75.60;98166.84;5214351;28;20194;-60
2021/03/08 01:37:46;;;;;;;19.10;16.77;;;-1.40;99.90;;;-0.55;75.45;98164.25;5204725;28;20225;-59
2021/03/08 01:40:21;;;;;;;19.87;16.33;;;-1.40;99.90;;;-0.67;75.31;98161.34;5218078;28;20208;-60
2021/03/08 01:42:55;;;;;;;20.23;17.93;;;-1.50;99.90;;;-0.63;75.13;98153.44;5184480;28;20199;-60
2021/03/08 01:45:27;;;;;;;20.57;17.37;;;-1.50;99.90;;;-0.69;74.88;98155.28;5214613;28;20223;-61
2021/03/08 01:48:00;;;;;;;20.63;18.00;;;-1.60;99.90;;;-0.98;74.60;98163.13;5217247;28;20279;-60
2021/03/08 01:50:37;;;;;;;19.63;16.80;;;-1.80;99.90;;;-0.98;74.83;98154.72;5208989;28;20198;-61
2021/03/08 01:53:12;;;;;;;20.47;17.00;;;-1.80;99.90;;;-0.98;76.66;98149.72;5224799;28;20197;-60
2021/03/08 01:55:45;;;;;;;20.57;17.20;;;-1.80;99.90;;;-0.98;75.89;98145.56;5225096;28;20211;-60
2021/03/08 01:58:17;;;;;;;20.67;16.70;;;-1.70;99.90;;;-1.08;76.22;98152.88;5196693;28;20215;-60
2021/03/08 02:00:49;;;;;;;20.90;16.83;;;-1.90;99.90;;;-1.12;77.25;98160.78;5184363;28;20203;-61
2021/03/08 02:03:22;;;;;;;19.67;16.90;;;-1.90;99.90;;;-1.02;77.22;98163.56;5190934;28;20281;-59
2021/03/08 02:05:55;;;;;;;19.63;17.07;;;-1.80;99.90;;;-1.01;76.94;98157.78;5210483;28;20849;-59
2021/03/08 02:08:27;;;;;;;24.73;18.70;;;-1.80;99.90;;;-0.94;76.42;98161.88;5218941;28;20227;-61
2021/03/08 02:11:00;;;;;;;19.00;16.97;;;-1.80;99.90;;;-1.01;77.21;98155.28;5209161;28;20229;-62
2021/03/08 02:14:21;;;;;;;22.77;17.60;;;-1.80;99.90;;;-0.99;75.75;98157.97;5201426;28;20205;-62
2021/03/08 02:17:00;;;;;;;17.57;15.77;;;-1.80;99.90;;;-1.01;76.69;98155.28;5178883;28;20217;-62
2021/03/08 02:20:11;;;;;;;24.30;17.90;;;-1.80;99.90;;;-1.08;75.20;98152.00;5205616;28;20202;-62
2021/03/08 02:23:13;;;;;;;22.27;18.37;;;-1.90;99.90;;;-1.09;75.81;98161.09;5207960;28;20213;-63
2021/03/08 02:26:14;;;;;;;22.10;17.90;;;-1.90;99.90;;;-1.15;75.28;98155.44;5208165;28;20217;-62
2021/03/08 02:29:41;;;;;;;20.77;17.43;;;-1.90;99.90;;;-1.26;77.03;98146.81;5207241;28;20224;-62
2021/03/08 02:32:18;;;;;;;21.27;17.47;;;-2.00;99.90;;;-1.27;77.25;98155.03;5172215;28;20202;-62
2021/03/08 02:35:01;;;;;;;20.83;17.57;;;-2.00;99.90;;;-1.38;76.97;98153.88;5198040;28;20195;-62
2021/03/08 02:37:41;;;;;;;20.40;16.73;;;-2.20;99.90;;;-1.27;76.51;98154.16;5187129;28;20699;-62
2021/03/08 02:40:18;;;;;;;20.63;17.80;;;-2.10;99.90;;;-1.31;77.44;98150.44;5190197;28;20687;-62
2021/03/08 02:42:55;;;;;;;19.80;15.97;;;-2.10;99.90;;;-1.24;75.52;98149.47;5194938;28;20196;-63
2021/03/08 02:45:30;;;;;;;20.93;16.73;;;-2.10;99.90;;;-1.34;75.76;98151.69;5195224;28;20227;-63
2021/03/08 02:48:04;;;;;;;18.83;15.90;;;-2.20;99.90;;;-1.31;76.95;98147.03;5212126;28;20214;-62
2021/03/08 02:50:37;;;;;;;21.10;16.97;;;-2.20;99.90;;;-1.30;76.34;98147.19;5222460;28;20200;-62
2021/03/08 02:53:14;;;;;;;19.33;17.10;;;-2.20;99.90;;;-1.24;75.26;98146.94;5208714;28;20209;-61
2021/03/08 02:55:53;;;;;;;17.80;15.90;;;-2.20;99.90;;;-1.29;75.29;98151.47;5206600;28;20653;-62
2021/03/08 02:58:29;;;;;;;18.00;16.07;;;-2.20;99.90;;;-1.37;74.99;98143.16;5187733;28;20222;-61
2021/03/08 03:01:14;;;;;;;20.87;16.90;;;-2.20;99.90;;;-1.37;75.47;98140.63;5191563;28;20204;-62
2021/03/08 03:03:52;;;;;;;20.90;17.30;;;-2.20;99.90;;;-1.40;75.03;98142.81;5204565;28;20252;-62
2021/03/08 03:06:28;;;;;;;19.60;17.50;;;-2.20;99.90;;;-1.37;75.65;98140.63;5219839;28;20535;-62
2021/03/08 03:09:05;;;;;;;20.17;17.30;;;-2.20;99.90;;;-1.43;75.11;98137.47;5222284;28;20709;-62
2021/03/08 03:11:40;;;;;;;20.07;16.80;;;-2.30;99.90;;;-1.47;76.31;98139.47;5221232;28;20567;-62
2021/03/08 03:14:13;;;;;;;19.97;16.70;;;-2.30;99.90;;;-1.57;76.11;98147.66;5227371;28;20196;-62
2021/03/08 03:16:47;;;;;;;19.43;16.83;;;-2.40;99.90;;;-1.62;76.69;98142.13;5213184;28;20682;-62
2021/03/08 03:19:22;;;;;;;21.83;17.50;;;-2.50;99.90;;;-1.54;75.26;98149.59;5218499;28;20207;-62
2021/03/08 03:21:59;;;;;;;19.20;16.67;;;-2.40;99.90;;;-1.70;75.74;98147.03;5220116;28;20591;-62
2021/03/08 03:24:32;;;;;;;22.10;17.53;;;-2.60;99.90;;;-1.67;76.14;98152.38;5211891;28;20221;-62
2021/03/08 03:27:05;;;;;;;20.93;17.30;;;-2.50;99.90;;;-1.66;75.93;98152.56;5208447;28;20222;-62
2021/03/08 03:29:38;;;;;;;19.53;17.43;;;-2.50;99.90;;;-1.71;76.77;98162.81;5205844;28;20201;-61
2021/03/08 03:32:13;;;;;;;19.67;17.10;;;-2.50;99.90;;;-1.76;77.35;98163.91;5204751;28;20201;-62
2021/03/08 03:34:48;;;;;;;24.27;18.60;;;-2.60;99.90;;;-1.70;76.34;98155.44;5219810;28;20305;-62
2021/03/08 03:37:23;;;;;;;22.57;19.03;;;-2.50;99.90;;;-1.68;76.61;98160.63;5221722;28;20708;-61
2021/03/08 03:39:55;;;;;;;19.20;16.93;;;-2.50;99.90;;;-1.68;77.42;98165.63;5206292;28;20244;-62
2021/03/08 03:42:27;;;;;;;20.83;16.10;;;-2.50;99.90;;;-1.64;76.23;98162.72;5225807;28;20203;-63
2021/03/08 03:45:01;;;;;;;22.30;18.60;;;-2.60;99.90;;;-1.69;75.24;98167.25;5206939;28;20217;-62
2021/03/08 03:47:33;;;;;;;18.17;16.07;;;-2.60;99.90;;;-1.82;75.51;98165.00;5215513;28;20210;-62
2021/03/08 03:50:10;;;;;;;20.43;17.43;;;-2.60;99.90;;;-1.88;75.36;98164.34;5187294;28;20201;-62
2021/03/08 03:52:42;;;;;;;20.67;17.53;;;-2.70;99.90;;;-1.85;75.88;98158.78;5207316;28;20570;-62
2021/03/08 03:55:17;;;;;;;20.50;18.07;;;-2.70;99.90;;;-1.85;75.44;98179.72;5221812;28;20280;-62
2021/03/08 03:58:00;;;;;;;20.90;17.17;;;-2.70;99.90;;;-1.84;75.96;98181.47;5226724;28;20228;-62
2021/03/08 04:00:39;;;;;;;21.60;17.17;;;-2.70;99.90;;;-1.99;76.68;98184.81;5200456;28;20718;-62
2021/03/08 04:03:12;;;;;;;22.27;18.67;;;-2.90;99.90;;;-1.95;76.06;98186.03;5186714;28;20216;-60
2021/03/08 04:05:46;;;;;;;22.90;18.17;;;-2.80;99.90;;;-2.00;76.43;98188.06;5203361;28;20226;-62
2021/03/08 04:08:21;;;;;;;21.43;16.93;;;-2.80;99.90;;;-2.07;76.88;98190.59;5206671;28;20224;-62
2021/03/08 04:10:57;;;;;;;22.47;18.37;;;-2.90;99.90;;;-2.10;75.90;98201.16;5220425;28;20193;-62
2021/03/08 04:13:32;;;;;;;21.10;18.23;;;-3.00;99.90;;;-2.11;77.29;98204.41;5207083;28;20296;-62
2021/03/08 04:16:06;;;;;;;22.47;18.20;;;-2.90;99.90;;;-1.98;77.60;98206.63;5219061;28;20193;-63
2021/03/08 04:18:39;;;;;;;24.40;19.13;;;-2.80;99.90;;;-1.93;76.10;98210.53;5205513;28;20218;-62
2021/03/08 04:21:13;;;;;;;20.67;17.77;;;-2.80;99.90;;;-1.96;77.44;98205.19;5201042;28;20705;-63
2021/03/08 04:23:46;;;;;;;22.63;19.07;;;-2.80;99.90;;;-1.87;76.50;98210.31;5205103;28;20666;-62
2021/03/08 04:26:19;;;;;;;22.10;18.03;;;-2.90;99.90;;;-1.90;75.61;98210.88;5204942;28;20190;-63
2021/03/08 04:28:51;;;;;;;21.57;17.20;;;-2.90;99.90;;;-1.98;75.76;98211.63;5205753;28;20462;-63
2021/03/08 04:31:24;;;;;;;20.03;16.37;;;-2.90;99.90;;;-2.12;75.50;98215.16;5200217;28;20561;-63
2021/03/08 04:33:58;;;;;;;23.40;18.00;;;-3.00;99.90;;;-2.10;75.63;98212.81;5212816;28;20696;-62
2021/03/08 04:36:33;;;;;;;19.27;16.77;;;-2.90;99.90;;;-2.16;75.77;98212.13;5210471;28;20197;-63
2021/03/08 04:39:06;;;;;;;20.97;18.27;;;-3.00;99.90;;;-2.16;76.17;98219.63;5205733;28;20197;-63
2021/03/08 04:41:38;;;;;;;22.37;18.33;;;-3.00;99.90;;;-2.16;75.99;98214.63;5206440;28;20190;-61
2021/03/08 04:44:11;;;;;;;21.90;18.40;;;-3.00;99.90;;;-2.20;76.30;98215.00;5206452;28;20751;-61
2021/03/08 04:46:43;;;;;;;21.10;18.03;;;-3.00;99.90;;;-2.16;76.23;98220.53;5193192;28;20198;-61
2021/03/08 04:49:18;;;;;;;21.50;17.90;;;-3.00;99.90;;;-2.17;76.95;98227.88;5200599;28;20202;-63
2021/03/08 04:51:53;;;;;;;25.07;18.80;;;-3.00;99.90;;;-2.22;77.35;98221.47;5205675;28;20209;-63
2021/03/08 04:54:26;;;;;;;23.30;18.47;;;-3.10;99.90;;;-2.19;77.02;98234.31;5205318;28;20546;-63
2021/03/08 04:56:59;;;;;;;21.43;18.00;;;-3.00;99.90;;;-2.20;76.46;98233.44;5208823;28;20226;-64
2021/03/08 04:59:31;;;;;;;23.23;18.30;;;-3.00;99.90;;;-2.21;77.40;98229.13;5234633;22;20239;-55
2021/03/08 05:02:03;;;;;;;21.83;18.47;;;-3.00;99.90;;;-2.20;77.18;98228.44;5214855;28;20208;-57
2021/03/08 05:04:38;;;;;;;21.43;17.63;;;-3.10;99.90;;;-2.18;76.37;98241.09;5211185;28;20308;-56
2021/03/08 05:07:15;;;;;;;23.00;18.87;;;-3.10;99.90;;;-2.25;77.20;98249.53;5220552;28;20192;-59
2021/03/08 05:09:51;;;;;;;23.00;18.97;;;-3.10;99.90;;;-2.22;75.53;98241.50;5203033;28;20591;-58
2021/03/08 05:12:27;;;;;;;22.57;17.70;;;-3.10;99.90;;;-2.27;76.04;98241.84;5200391;28;20657;-58
2021/03/08 05:15:05;;;;;;;24.57;18.53;;;-3.10;99.90;;;-2.25;76.51;98238.63;5202081;28;20191;-60
2021/03/08 05:17:39;;;;;;;22.33;18.10;;;-3.10;99.90;;;-2.29;76.29;98243.31;5205143;28;20201;-55
2021/03/08 05:20:15;;;;;;;22.43;18.20;;;-3.10;99.90;;;-2.34;76.79;98236.88;5197774;28;20699;-56
2021/03/08 05:22:49;;;;;;;22.47;18.20;;;-3.20;99.90;;;-2.56;76.82;98230.19;5192747;28;20194;-59
2021/03/08 05:25:21;;;;;;;24.33;18.53;;;-3.30;99.90;;;-2.56;76.29;98235.19;5192735;28;20228;-57
2021/03/08 05:27:54;;;;;;;21.87;18.63;;;-3.40;99.90;;;-2.55;77.60;98245.38;5204813;28;20217;-55
2021/03/08 05:30:28;;;;;;;24.47;19.03;;;-3.40;99.90;;;-2.52;77.85;98244.81;5199513;28;20194;-59
2021/03/08 05:33:12;;;;;;;22.90;18.23;;;-3.30;99.90;;;-2.52;77.58;98243.22;5204436;28;20194;-58
2021/03/08 05:35:50;;;;;;;22.60;18.87;;;-3.30;99.90;;;-2.56;77.13;98250.19;5199724;28;20204;-59
2021/03/08 05:38:25;;;;;;;23.30;18.60;;;-3.30;99.90;;;-2.55;77.67;98250.41;5189227;28;20304;-60
2021/03/08 05:41:05;;;;;;;24.43;20.30;;;-3.30;99.90;;;-2.46;76.44;98247.13;5194114;28;20216;-60
2021/03/08 05:43:38;;;;;;;23.47;19.60;;;-3.40;99.90;;;-2.45;76.38;98254.81;5190841;28;20200;-59
2021/03/08 05:46:17;;;;;;;20.33;17.77;;;-3.30;99.90;;;-2.57;76.64;98259.31;5208540;28;20225;-58
2021/03/08 05:49:38;;;;;;;22.33;18.27;;;-3.40;99.90;;;-2.61;76.70;98261.28;5199739;28;20226;-61
2021/03/08 05:52:35;;;;;;;22.67;19.57;;;-3.30;99.90;;;-2.54;76.72;98258.78;5202758;28;20208;-57
2021/03/08 05:55:39;;;;;;;23.37;18.33;;;-3.30;99.90;;;-2.57;76.54;98254.31;5201350;28;20217;-58
2021/03/08 05:58:29;;;;;;;23.13;18.27;;;-3.40;99.90;;;-2.55;75.95;98251.97;5204030;28;20665;-56
2021/03/08 06:01:28;;;;;;;22.10;19.23;;;-3.40;99.90;;;-2.62;75.75;98249.50;5201533;28;20208;-60
2021/03/08 06:04:23;;;;;;;23.60;19.57;;;-3.50;99.90;;;-2.76;76.50;98257.94;5195926;28;20190;-58
2021/03/08 06:07:27;;;;;;;24.30;19.17;;;-3.60;99.90;;;-2.72;76.27;98263.50;5195698;28;20199;-60
2021/03/08 06:10:05;;;;;;;23.90;19.20;;;-3.50;99.90;;;-2.57;76.12;98254.31;5194563;28;20202;-62
2021/03/08 06:12:40;;;;;;;25.63;20.47;;;-3.40;99.90;;;-2.55;76.57;98256.97;5202367;28;20198;-58
2021/03/08 06:15:13;;;;;;;25.27;20.27;;;-3.40;99.90;;;-2.50;76.35;98266.78;5190211;28;20198;-61
2021/03/08 06:17:48;;;;;;;22.07;18.97;;;-3.30;99.90;;;-2.53;76.04;98261.44;5203717;28;20213;-60
2021/03/08 06:20:20;;;;;;;23.33;19.83;;;-3.40;99.90;;;-2.38;76.11;98267.28;5201595;28;20190;-60
2021/03/08 06:22:55;;;;;;;25.07;20.57;;;-3.20;99.90;;;-2.15;75.43;98263.97;5189059;28;20659;-59
2021/03/08 06:25:28;;;;;;;24.23;20.07;;;-3.20;99.90;;;-1.92;75.83;98266.53;5187336;28;20214;-56
2021/03/08 06:28:02;;;;;;;22.37;18.97;;;-3.00;99.90;;;-1.69;75.27;98281.59;5187745;28;20224;-60
2021/03/08 06:30:34;;;;;;;20.27;17.50;;;-2.90;99.90;;;-1.44;73.81;98276.03;5198490;28;20198;-60
2021/03/08 06:33:06;;;;;;;23.57;19.00;;;-2.70;99.90;;;-0.99;72.38;98284.28;5201558;28;20722;-60
2021/03/08 06:35:39;;;;;;;22.13;19.17;;;-2.50;99.90;;;-0.76;71.24;98280.84;5202583;28;20194;-60
2021/03/08 06:38:12;;;;;;;21.67;16.80;;;-2.30;99.90;;;-0.57;70.53;98276.13;5190295;28;20210;-64
2021/03/08 06:40:46;;;;;;;22.23;17.77;;;-2.20;99.90;;;-0.42;70.01;98282.78;5196577;28;20207;-62
2021/03/08 06:43:19;;;;;;;22.53;18.40;;;-2.20;99.90;;;-0.61;68.35;98287.47;5198129;28;20194;-61
2021/03/08 06:45:51;;;;;;;21.33;18.20;;;-2.10;99.90;;;-0.39;69.81;98279.72;5191170;28;20217;-62
2021/03/08 06:48:24;;;;;;;21.57;18.77;;;-2.00;99.90;;;-0.11;68.94;98281.00;5201062;28;20214;-61
2021/03/08 06:51:10;;;;;;;22.07;18.23;;;-1.90;99.90;;;0.29;68.42;98288.53;5193450;28;20578;-61
2021/03/08 06:53:45;;;;;;;20.93;18.23;;;-1.60;99.90;;;0.73;66.75;98278.72;5190499;28;20209;-60
2021/03/08 06:56:19;;;;;;;21.00;18.80;;;-1.40;99.90;;;1.00;66.87;98283.09;5193765;28;20290;-60
2021/03/08 06:59:13;;;;;;;24.37;20.23;;;-1.10;99.90;;;1.17;65.58;98278.13;5197128;28;20786;-61
2021/03/08 07:01:46;;;;;;;21.10;18.83;;;-0.90;99.90;;;1.20;65.79;98277.53;5194113;28;20198;-63
2021/03/08 07:04:23;;;;;;;21.43;19.23;;;-0.80;99.90;;;1.31;65.52;98282.03;5187242;28;20204;-60
2021/03/08 07:07:01;;;;;;;21.60;18.40;;;-0.40;99.90;;;1.45;64.48;98280.88;5197589;28;20195;-63
2021/03/08 07:09:34;;;;;;;23.77;18.40;;;-0.40;99.90;;;1.44;63.60;98287.53;5198558;28;20214;-60
2021/03/08 07:12:10;;;;;;;20.63;18.53;;;-0.30;99.90;;;1.51;64.69;98286.50;5199215;28;20198;-60
2021/03/08 07:14:44;;;;;;;20.60;18.40;;;0.00;99.90;;;1.61;64.66;98289.19;5192037;28;20213;-61
2021/03/08 07:17:34;;;;;;;20.80;18.07;;;0.20;99.90;;;1.62;64.49;98290.97;5185324;28;20200;-61
2021/03/08 07:20:10;;;;;;;20.73;18.53;;;0.20;99.90;;;1.69;64.71;98300.94;5195106;28;20292;-61
2021/03/08 07:22:44;;;;;;;19.70;17.60;;;0.30;99.90;;;2.09;63.69;98296.31;5199041;28;20205;-60
2021/03/08 07:25:19;;;;;;;21.53;18.57;;;0.30;99.90;;;2.26;63.00;98306.41;5199343;28;20218;-60
2021/03/08 07:27:54;;;;;;;21.70;19.30;;;0.60;99.90;;;2.36;63.18;98313.22;5198132;28;20591;-60
2021/03/08 07:30:30;;;;;;;19.57;17.50;;;0.80;99.90;;;2.29;63.58;98305.81;5191895;28;20222;-61
2021/03/08 07:33:04;;;;;;;20.27;18.17;;;0.80;99.90;;;2.46;62.99;98318.38;5196752;28;20208;-61
2021/03/08 07:35:40;;;;;;;22.00;19.53;;;1.00;99.90;;;2.42;61.95;98314.69;5199576;28;20189;-61
2021/03/08 07:38:14;;;;;;;21.07;18.80;;;1.10;99.90;;;2.65;62.17;98314.34;5184967;28;20225;-59
2021/03/08 07:40:46;;;;;;;22.00;19.70;;;1.10;99.90;;;2.89;60.82;98317.41;5188332;28;20204;-59
2021/03/08 07:43:21;;;;;;;21.63;19.43;;;1.20;99.90;;;2.93;60.58;98319.47;5184182;28;20197;-60
2021/03/08 07:45:53;;;;;;;21.10;18.63;;;1.30;99.90;;;3.11;60.61;98318.66;5195713;28;20222;-59
2021/03/08 07:48:25;;;;;;;21.97;19.27;;;1.50;99.90;;;3.24;60.01;98314.75;5225549;28;20226;-60
2021/03/08 07:51:06;;;;;;;22.70;18.77;;;1.90;99.90;;;3.33;60.14;98315.59;5205553;28;20293;-60
2021/03/08 07:53:38;;;;;;;21.27;18.97;;;1.90;99.90;;;3.45;60.22;98321.78;5190359;28;20206;-60
2021/03/08 07:56:10;;;;;;;21.23;19.03;;;2.10;99.90;;;3.47;59.72;98330.41;5194957;28;20545;-59
2021/03/08 07:58:43;;;;;;;21.20;18.90;;;2.30;99.90;;;3.65;59.35;98326.13;5199537;28;20600;-60
2021/03/08 08:01:16;;;;;;;21.27;18.97;;;2.40;99.90;;;3.94;58.64;98326.22;5191632;28;20576;-61
2021/03/08 08:03:48;;;;;;;20.10;17.97;;;2.50;99.90;;;3.99;58.49;98319.94;5197808;28;20252;-60
2021/03/08 08:06:22;;;;;;;20.43;18.33;;;2.50;99.90;;;4.17;57.86;98332.44;5208408;28;20224;-59
2021/03/08 08:08:56;;;;;;;21.37;18.93;;;2.80;99.90;;;4.23;57.29;98330.47;5225349;28;20217;-61
2021/03/08 08:11:29;;;;;;;22.83;19.83;;;2.70;99.90;;;4.09;58.02;98328.34;5202709;28;20201;-58
2021/03/08 08:14:04;;;;;;;23.00;20.50;;;2.80;99.90;;;4.18;58.58;98324.13;5201407;28;20632;-61
2021/03/08 08:16:39;;;;;;;21.47;19.27;;;3.10;99.90;;;4.40;58.47;98329.44;5196017;28;20688;-60
2021/03/08 08:19:14;;;;;;;20.50;18.30;;;3.30;99.90;;;4.70;56.77;98316.94;5195251;28;20222;-60
2021/03/08 08:21:47;;;;;;;22.03;19.30;;;3.40;99.90;;;4.80;56.37;98318.59;5191603;28;20290;-60
2021/03/08 08:24:23;;;;;;;23.23;20.50;;;3.50;99.90;;;4.88;56.25;98317.63;5203920;28;20198;-59
2021/03/08 08:26:57;;;;;;;21.57;19.37;;;3.60;99.90;;;5.08;55.98;98319.34;5186551;28;20194;-59
2021/03/08 08:29:30;;;;;;;21.47;19.37;;;3.90;99.90;;;5.26;54.51;98314.06;5194793;28;20215;-58
2021/03/08 08:32:05;;;;;;;23.60;21.10;;;4.30;99.90;;;5.24;55.12;98313.94;5191477;28;20706;-59
2021/03/08 08:34:39;;;;;;;21.83;19.40;;;4.10;99.90;;;5.28;55.41;98320.16;5199059;28;20239;-58
2021/03/08 08:37:13;;;;;;;20.63;18.63;;;4.20;99.90;;;5.57;54.72;98315.00;5205096;28;20197;-59
2021/03/08 08:40:17;;;;;;;19.40;17.23;;;4.50;99.90;;;5.85;53.67;98318.16;5201078;28;20684;-58
2021/03/08 08:43:24;;;;;;;21.60;19.50;;;5.00;99.70;;;5.80;53.96;98315.25;5205084;28;20195;-57
2021/03/08 08:45:56;;;;;;;20.83;18.70;;;5.10;99.40;;;5.74;54.05;98312.22;5204796;28;20348;-59
2021/03/08 08:48:29;;;;;;;19.67;17.73;;;5.00;99.70;;;5.95;53.78;98315.69;5202888;28;20267;-59
2021/03/08 08:51:02;;;;;;;20.70;18.63;;;4.80;99.90;;;6.07;54.27;98320.88;5197041;28;20700;-62
2021/03/08 08:53:42;;;;;;;21.00;18.90;;;4.90;99.90;;;6.01;54.16;98310.19;5203752;28;20195;-63
2021/03/08 08:56:14;;;;;;;21.13;19.17;;;5.00;99.70;;;5.78;54.40;98308.28;5192525;28;20541;-63
2021/03/08 08:58:48;;;;;;;20.07;18.27;;;4.90;99.90;;;6.00;54.55;98303.34;5196437;28;20246;-63
2021/03/08 09:01:26;;;;;;;20.37;18.37;;;4.90;99.90;;;6.15;53.63;98304.59;5190293;28;20197;-63
2021/03/08 09:04:01;;;;;;;20.33;18.33;;;5.10;99.90;;;6.17;53.32;98308.16;5198287;28;20602;-63
2021/03/08 09:06:51;;;;;;;21.43;19.33;;;5.30;99.60;;;6.41;53.33;98303.25;5202984;28;20238;-62
2021/03/08 09:09:54;;;;;;;21.93;19.70;;;5.40;99.50;;;6.34;52.52;98303.56;5199616;28;20693;-63
2021/03/08 09:12:44;;;;;;;26.37;22.87;;;5.30;99.30;;;6.43;52.50;98304.28;5203263;28;20226;-63
2021/03/08 09:15:25;;;;;;;22.77;20.70;;;5.40;99.30;;;6.48;52.41;98300.47;5201978;28;20200;-62
2021/03/08 09:18:04;;;;;;;20.70;18.73;;;5.50;99.20;;;6.60;51.92;98295.47;5204334;28;20306;-63
2021/03/08 09:20:39;;;;;;;20.93;18.93;;;5.50;98.80;;;6.66;52.20;98295.94;5206711;28;20567;-63
2021/03/08 09:23:24;;;;;;;20.73;18.60;;;5.60;98.60;;;6.74;52.07;98295.78;5196127;28;20220;-62
2021/03/08 09:25:59;;;;;;;20.90;18.90;;;5.80;98.60;;;6.82;51.47;98303.13;5202830;28;20221;-62
2021/03/08 09:28:32;;;;;;;20.07;18.07;;;5.70;98.70;;;7.00;51.72;98305.44;5203436;28;20327;-63
2021/03/08 09:31:04;;;;;;;20.23;18.13;;;6.20;98.40;;;7.09;51.07;98300.19;5195125;28;20681;-62
2021/03/08 09:33:37;;;;;;;19.30;17.43;;;6.00;97.90;;;7.07;51.35;98301.75;5192482;28;20193;-62
2021/03/08 09:36:22;;;;;;;19.10;17.40;;;6.20;98.20;;;7.02;51.19;98305.59;5206428;28;20194;-63
2021/03/08 09:38:56;;;;;;;19.10;17.20;;;6.10;97.70;;;7.27;51.04;98307.47;5204172;28;20310;-62
2021/03/08 09:41:29;;;;;;;19.67;17.77;;;6.20;98.00;;;7.30;51.09;98307.72;5208842;28;20202;-63
2021/03/08 09:44:01;;;;;;;18.67;16.90;;;6.40;97.90;;;7.55;49.80;98306.25;5201739;28;20198;-63
2021/03/08 09:46:33;;;;;;;18.50;16.83;;;6.90;96.60;;;7.48;49.42;98298.94;5207856;28;20712;-62
2021/03/08 09:49:06;;;;;;;18.13;16.43;;;6.70;96.40;;;7.48;50.29;98296.41;5194806;28;20683;-63
2021/03/08 09:51:41;;;;;;;19.70;17.90;;;6.80;97.00;;;7.61;49.91;98294.03;5203438;28;20241;-63
2021/03/08 09:54:13;;;;;;;16.93;15.40;;;6.80;96.50;;;7.76;47.88;98301.91;5191749;28;20220;-62
2021/03/08 09:56:46;;;;;;;17.27;15.77;;;6.90;95.20;;;7.52;48.69;98298.38;5188003;28;20203;-62
2021/03/08 09:59:18;;;;;;;18.30;16.57;;;6.80;96.10;;;7.32;49.13;98298.53;5193830;28;20662;-62
2021/03/08 10:01:52;;;;;;;16.83;15.27;;;6.60;95.70;;;7.09;49.39;98294.22;5200282;28;20198;-63
2021/03/08 10:04:24;;;;;;;17.03;15.33;;;6.50;95.50;;;7.45;49.17;98293.63;5206196;28;20721;-63
2021/03/08 10:07:06;;;;;;;17.47;15.87;;;6.60;96.00;;;7.59;48.81;98295.56;5205961;28;20645;-63
2021/03/08 10:09:38;;;;;;;18.10;15.67;;;6.80;95.80;;;7.92;47.80;98286.09;5193570;28;20209;-63
2021/03/08 10:12:12;;;;;;;17.60;15.80;;;7.10;95.40;;;7.83;47.82;98287.97;5201031;28;20198;-60
2021/03/08 10:14:44;;;;;;;17.13;15.63;;;7.10;95.00;;;7.92;47.97;98293.75;5205571;28;20205;-60
2021/03/08 10:17:17;;;;;;;16.43;14.87;;;7.10;95.00;;;7.93;48.00;98297.22;5205680;28;20202;-60
2021/03/08 10:19:54;;;;;;;16.20;14.73;;;7.00;95.10;;;7.88;46.34;98291.75;5195399;28;20729;-60
2021/03/08 10:22:41;;;;;;;14.67;13.17;;;6.90;94.20;;;8.06;45.58;98284.59;5204208;28;20369;-59
2021/03/08 10:25:22;;;;;;;12.37;11.37;;;7.20;93.50;;;8.12;44.44;98285.03;5204878;28;20734;-59
2021/03/08 10:27:56;;;;;;;13.27;12.10;;;7.20;92.70;;;7.96;44.30;98285.59;5198640;28;20673;-60
2021/03/08 10:30:31;;;;;;;13.53;12.13;;;7.10;92.40;;;7.69;45.20;98276.78;5186169;28;20204;-60
2021/03/08 10:33:06;;;;;;;12.93;11.83;;;6.80;92.70;;;7.99;44.04;98277.28;5192807;28;20194;-60
2021/03/08 10:35:43;;;;;;;13.27;12.07;;;7.10;92.10;;;7.99;44.90;98274.75;5197440;28;20264;-60
2021/03/08 10:38:33;;;;;;;12.57;11.37;;;7.10;92.40;;;8.13;45.15;98277.53;5198552;28;20671;-60
2021/03/08 10:41:07;;;;;;;12.97;11.87;;;7.50;92.60;;;8.24;44.49;98269.75;5199736;28;20731;-60
2021/03/08 10:43:42;;;;;;;11.20;10.10;;;7.40;92.00;;;8.11;42.89;98271.41;5198981;28;20275;-60
2021/03/08 10:46:14;;;;;;;11.77;10.77;;;7.50;90.70;;;8.18;43.16;98270.19;5194712;28;20225;-60
2021/03/08 10:48:56;;;;;;;11.80;10.73;;;7.50;91.00;;;8.18;43.23;98270.19;5199629;28;20218;-61